sensor_id;sensor_type;location;lat;lon;timestamp;pressure;altitude;pressure_sealevel;temperature;humidity
46007;BME280;31738;50.188;8.524;2022-09-02T00:01:45;99028.69;;;18.66;49.13
46007;BME280;31738;50.188;8.524;2022-09-02T00:04:23;99034.59;;;18.59;49.55
46007;BME280;31738;50.188;8.524;2022-09-02T00:06:50;99027.25;;;18.60;49.54
46007;BME280;31738;50.188;8.524;2022-09-02T00:09:21;99027.56;;;18.58;49.82
46007;BME280;31738;50.188;8.524;2022-09-02T00:11:48;99023.41;;;18.52;49.57
46007;BME280;31738;50.188;8.524;2022-09-02T00:14:27;99013.81;;;18.46;49.84
46007;BME280;31738;50.188;8.524;2022-09-02T00:16:53;99015.09;;;18.40;50.39
46007;BME280;31738;50.188;8.524;2022-09-02T00:19:22;99019.41;;;18.41;49.61
46007;BME280;31738;50.188;8.524;2022-09-02T00:21:49;99008.66;;;18.36;49.97
46007;BME280;31738;50.188;8.524;2022-09-02T00:24:15;99005.47;;;18.34;50.52
46007;BME280;31738;50.188;8.524;2022-09-02T00:26:42;99012.00;;;18.33;50.38
46007;BME280;31738;50.188;8.524;2022-09-02T00:29:08;99009.91;;;18.30;50.26
46007;BME280;31738;50.188;8.524;2022-09-02T00:31:34;98996.00;;;18.23;50.54
46007;BME280;31738;50.188;8.524;2022-09-02T00:34:02;98993.13;;;18.20;50.58
46007;BME280;31738;50.188;8.524;2022-09-02T00:36:28;99003.84;;;18.16;50.69
46007;BME280;31738;50.188;8.524;2022-09-02T00:38:54;98995.19;;;18.14;51.22
46007;BME280;31738;50.188;8.524;2022-09-02T00:41:22;98993.28;;;18.15;50.90
46007;BME280;31738;50.188;8.524;2022-09-02T00:44:04;98987.66;;;18.03;50.79
46007;BME280;31738;50.188;8.524;2022-09-02T00:46:31;98993.88;;;18.03;50.93
46007;BME280;31738;50.188;8.524;2022-09-02T00:49:14;98994.50;;;18.00;51.09
46007;BME280;31738;50.188;8.524;2022-09-02T00:52:02;98985.38;;;17.88;51.56
46007;BME280;31738;50.188;8.524;2022-09-02T00:54:30;98981.72;;;17.92;51.49
46007;BME280;31738;50.188;8.524;2022-09-02T00:56:57;98980.31;;;17.95;51.25
46007;BME280;31738;50.188;8.524;2022-09-02T00:59:42;98983.47;;;17.88;51.13
46007;BME280;31738;50.188;8.524;2022-09-02T01:02:11;98982.34;;;17.89;51.60
46007;BME280;31738;50.188;8.524;2022-09-02T01:04:36;98979.31;;;17.91;51.20
46007;BME280;31738;50.188;8.524;2022-09-02T01:07:02;98978.03;;;17.88;51.33
46007;BME280;31738;50.188;8.524;2022-09-02T01:09:28;98975.31;;;17.88;51.51
46007;BME280;31738;50.188;8.524;2022-09-02T01:11:56;98976.44;;;17.87;51.82
46007;BME280;31738;50.188;8.524;2022-09-02T01:14:23;98967.81;;;17.85;52.06
46007;BME280;31738;50.188;8.524;2022-09-02T01:16:51;98973.56;;;17.84;51.66
46007;BME280;31738;50.188;8.524;2022-09-02T01:19:23;98965.56;;;17.79;51.82
46007;BME280;31738;50.188;8.524;2022-09-02T01:21:51;98964.75;;;17.78;52.15
46007;BME280;31738;50.188;8.524;2022-09-02T01:24:18;98970.78;;;17.75;52.70
46007;BME280;31738;50.188;8.524;2022-09-02T01:26:44;98974.44;;;17.71;52.24
46007;BME280;31738;50.188;8.524;2022-09-02T01:29:11;98969.84;;;17.71;52.43
46007;BME280;31738;50.188;8.524;2022-09-02T01:31:37;98964.41;;;17.71;52.72
46007;BME280;31738;50.188;8.524;2022-09-02T01:34:03;98966.31;;;17.71;52.36
46007;BME280;31738;50.188;8.524;2022-09-02T01:36:32;98963.91;;;17.69;52.42
46007;BME280;31738;50.188;8.524;2022-09-02T01:38:58;98969.97;;;17.66;52.64
46007;BME280;31738;50.188;8.524;2022-09-02T01:41:24;98964.53;;;17.66;52.44
46007;BME280;31738;50.188;8.524;2022-09-02T01:43:49;98949.38;;;17.65;52.51
46007;BME280;31738;50.188;8.524;2022-09-02T01:46:15;98952.59;;;17.67;52.37
46007;BME280;31738;50.188;8.524;2022-09-02T01:48:41;98955.00;;;17.69;52.54
46007;BME280;31738;50.188;8.524;2022-09-02T01:51:06;98949.56;;;17.69;52.82
46007;BME280;31738;50.188;8.524;2022-09-02T01:53:32;98944.28;;;17.72;52.73
46007;BME280;31738;50.188;8.524;2022-09-02T01:55:59;98947.50;;;17.74;52.71
46007;BME280;31738;50.188;8.524;2022-09-02T01:58:27;98955.63;;;17.74;52.54
46007;BME280;31738;50.188;8.524;2022-09-02T02:00:53;98949.91;;;17.76;52.75
46007;BME280;31738;50.188;8.524;2022-09-02T02:03:19;98947.69;;;17.78;52.80
46007;BME280;31738;50.188;8.524;2022-09-02T02:05:45;98940.63;;;17.77;52.79
46007;BME280;31738;50.188;8.524;2022-09-02T02:08:14;98944.78;;;17.74;52.93
46007;BME280;31738;50.188;8.524;2022-09-02T02:10:41;98947.00;;;17.72;52.99
46007;BME280;31738;50.188;8.524;2022-09-02T02:13:07;98943.50;;;17.72;53.12
46007;BME280;31738;50.188;8.524;2022-09-02T02:15:36;98948.63;;;17.73;52.87
46007;BME280;31738;50.188;8.524;2022-09-02T02:18:02;98948.94;;;17.72;53.23
46007;BME280;31738;50.188;8.524;2022-09-02T02:20:28;98951.16;;;17.70;52.75
46007;BME280;31738;50.188;8.524;2022-09-02T02:22:55;98955.31;;;17.67;52.80
46007;BME280;31738;50.188;8.524;2022-09-02T02:25:20;98943.47;;;17.63;53.16
46007;BME280;31738;50.188;8.524;2022-09-02T02:27:49;98939.16;;;17.62;53.29
46007;BME280;31738;50.188;8.524;2022-09-02T02:30:16;98939.97;;;17.63;53.09
46007;BME280;31738;50.188;8.524;2022-09-02T02:32:43;98946.81;;;17.60;53.50
46007;BME280;31738;50.188;8.524;2022-09-02T02:35:14;98943.63;;;17.58;53.50
46007;BME280;31738;50.188;8.524;2022-09-02T02:37:40;98941.19;;;17.57;53.14
46007;BME280;31738;50.188;8.524;2022-09-02T02:40:07;98943.91;;;17.57;53.25
46007;BME280;31738;50.188;8.524;2022-09-02T02:42:33;98944.72;;;17.57;53.02
46007;BME280;31738;50.188;8.524;2022-09-02T02:44:59;98949.34;;;17.57;53.40
46007;BME280;31738;50.188;8.524;2022-09-02T02:47:25;98943.44;;;17.55;53.63
46007;BME280;31738;50.188;8.524;2022-09-02T02:49:51;98940.72;;;17.55;53.61
46007;BME280;31738;50.188;8.524;2022-09-02T02:52:17;98941.03;;;17.53;53.32
46007;BME280;31738;50.188;8.524;2022-09-02T02:54:43;98944.06;;;17.52;53.47
46007;BME280;31738;50.188;8.524;2022-09-02T02:57:10;98942.63;;;17.54;53.35
46007;BME280;31738;50.188;8.524;2022-09-02T02:59:36;98941.66;;;17.50;53.62
46007;BME280;31738;50.188;8.524;2022-09-02T03:02:03;98933.53;;;17.50;53.34
46007;BME280;31738;50.188;8.524;2022-09-02T03:04:29;98939.28;;;17.49;53.58
46007;BME280;31738;50.188;8.524;2022-09-02T03:06:55;98938.47;;;17.48;53.27
46007;BME280;31738;50.188;8.524;2022-09-02T03:09:21;98931.44;;;17.47;53.67
46007;BME280;31738;50.188;8.524;2022-09-02T03:11:47;98939.09;;;17.45;53.35
46007;BME280;31738;50.188;8.524;2022-09-02T03:14:13;98942.13;;;17.44;53.71
46007;BME280;31738;50.188;8.524;2022-09-02T03:16:39;98929.97;;;17.41;53.99
46007;BME280;31738;50.188;8.524;2022-09-02T03:19:06;98944.31;;;17.42;53.77
46007;BME280;31738;50.188;8.524;2022-09-02T03:21:32;98931.06;;;17.40;54.01
46007;BME280;31738;50.188;8.524;2022-09-02T03:23:58;98925.63;;;17.40;53.98
46007;BME280;31738;50.188;8.524;2022-09-02T03:26:24;98926.44;;;17.41;53.70
46007;BME280;31738;50.188;8.524;2022-09-02T03:28:54;98922.13;;;17.40;53.96
46007;BME280;31738;50.188;8.524;2022-09-02T03:31:22;98923.41;;;17.42;53.87
46007;BME280;31738;50.188;8.524;2022-09-02T03:33:48;98915.28;;;17.42;53.70
46007;BME280;31738;50.188;8.524;2022-09-02T03:36:32;98924.53;;;17.41;53.77
46007;BME280;31738;50.188;8.524;2022-09-02T03:38:58;98918.00;;;17.42;53.99
46007;BME280;31738;50.188;8.524;2022-09-02T03:41:26;98923.13;;;17.44;53.71
46007;BME280;31738;50.188;8.524;2022-09-02T03:43:53;98912.56;;;17.42;54.07
46007;BME280;31738;50.188;8.524;2022-09-02T03:46:19;98925.31;;;17.42;54.14
46007;BME280;31738;50.188;8.524;2022-09-02T03:48:45;98916.41;;;17.41;53.63
46007;BME280;31738;50.188;8.524;2022-09-02T03:51:12;98908.56;;;17.40;53.92
46007;BME280;31738;50.188;8.524;2022-09-02T03:53:38;98912.38;;;17.39;53.81
46007;BME280;31738;50.188;8.524;2022-09-02T03:56:08;98907.75;;;17.39;54.06
46007;BME280;31738;50.188;8.524;2022-09-02T03:58:36;98906.19;;;17.38;53.83
46007;BME280;31738;50.188;8.524;2022-09-02T04:01:03;98911.59;;;17.38;53.88
46007;BME280;31738;50.188;8.524;2022-09-02T04:03:29;98907.28;;;17.37;54.06
46007;BME280;31738;50.188;8.524;2022-09-02T04:05:55;98906.97;;;17.39;54.04
46007;BME280;31738;50.188;8.524;2022-09-02T04:08:24;98902.66;;;17.38;53.88
46007;BME280;31738;50.188;8.524;2022-09-02T04:10:51;98908.41;;;17.36;54.66
46007;BME280;31738;50.188;8.524;2022-09-02T04:13:17;98906.00;;;17.35;54.57
46007;BME280;31738;50.188;8.524;2022-09-02T04:15:44;98903.59;;;17.33;54.50
46007;BME280;31738;50.188;8.524;2022-09-02T04:18:13;98902.59;;;17.29;54.29
46007;BME280;31738;50.188;8.524;2022-09-02T04:20:40;98907.25;;;17.29;54.42
46007;BME280;31738;50.188;8.524;2022-09-02T04:23:06;98905.63;;;17.28;54.38
46007;BME280;31738;50.188;8.524;2022-09-02T04:25:36;98903.72;;;17.28;54.52
46007;BME280;31738;50.188;8.524;2022-09-02T04:28:02;98909.28;;;17.23;54.89
46007;BME280;31738;50.188;8.524;2022-09-02T04:30:27;98906.09;;;17.21;54.75
46007;BME280;31738;50.188;8.524;2022-09-02T04:32:53;98905.91;;;17.18;55.26
46007;BME280;31738;50.188;8.524;2022-09-02T04:35:19;98903.03;;;17.14;55.06
46007;BME280;31738;50.188;8.524;2022-09-02T04:37:45;98903.19;;;17.09;55.51
46007;BME280;31738;50.188;8.524;2022-09-02T04:40:14;98909.22;;;17.06;55.58
46007;BME280;31738;50.188;8.524;2022-09-02T04:42:40;98909.84;;;17.03;55.45
46007;BME280;31738;50.188;8.524;2022-09-02T04:45:08;98912.06;;;17.01;55.38
46007;BME280;31738;50.188;8.524;2022-09-02T04:47:34;98907.72;;;17.00;55.66
46007;BME280;31738;50.188;8.524;2022-09-02T04:50:01;98909.66;;;16.99;55.67
46007;BME280;31738;50.188;8.524;2022-09-02T04:52:29;98914.25;;;16.99;55.80
46007;BME280;31738;50.188;8.524;2022-09-02T04:54:55;98910.44;;;17.00;55.76
46007;BME280;31738;50.188;8.524;2022-09-02T04:57:21;98909.97;;;16.98;55.66
46007;BME280;31738;50.188;8.524;2022-09-02T04:59:47;98918.72;;;16.95;55.74
46007;BME280;31738;50.188;8.524;2022-09-02T05:02:13;98908.81;;;16.90;55.75
46007;BME280;31738;50.188;8.524;2022-09-02T05:04:39;98904.66;;;16.93;55.92
46007;BME280;31738;50.188;8.524;2022-09-02T05:07:11;98903.06;;;16.92;55.71
46007;BME280;31738;50.188;8.524;2022-09-02T05:09:41;98903.84;;;16.92;55.99
46007;BME280;31738;50.188;8.524;2022-09-02T05:12:08;98900.84;;;16.94;55.99
46007;BME280;31738;50.188;8.524;2022-09-02T05:14:41;98910.09;;;16.93;56.10
46007;BME280;31738;50.188;8.524;2022-09-02T05:17:08;98903.53;;;16.94;56.12
46007;BME280;31738;50.188;8.524;2022-09-02T05:19:38;98900.84;;;16.94;55.90
46007;BME280;31738;50.188;8.524;2022-09-02T05:22:03;98903.22;;;16.95;56.16
46007;BME280;31738;50.188;8.524;2022-09-02T05:24:35;98899.13;;;16.98;56.08
46007;BME280;31738;50.188;8.524;2022-09-02T05:27:05;98908.03;;;16.98;56.13
46007;BME280;31738;50.188;8.524;2022-09-02T05:29:33;98908.84;;;16.99;56.12
46007;BME280;31738;50.188;8.524;2022-09-02T05:31:59;98898.50;;;17.01;55.92
46007;BME280;31738;50.188;8.524;2022-09-02T05:34:25;98906.00;;;17.04;56.26
46007;BME280;31738;50.188;8.524;2022-09-02T05:36:54;98901.41;;;17.04;56.40
46007;BME280;31738;50.188;8.524;2022-09-02T05:39:20;98911.63;;;17.08;56.22
46007;BME280;31738;50.188;8.524;2022-09-02T05:41:47;98909.56;;;17.13;56.21
46007;BME280;31738;50.188;8.524;2022-09-02T05:44:12;98902.25;;;17.14;55.93
46007;BME280;31738;50.188;8.524;2022-09-02T05:46:38;98901.94;;;17.15;55.77
46007;BME280;31738;50.188;8.524;2022-09-02T05:49:04;98901.31;;;17.18;56.01
46007;BME280;31738;50.188;8.524;2022-09-02T05:51:40;98896.03;;;17.22;55.71
46007;BME280;31738;50.188;8.524;2022-09-02T05:54:29;98898.28;;;17.20;55.34
46007;BME280;31738;50.188;8.524;2022-09-02T05:57:00;98893.19;;;17.27;55.69
46007;BME280;31738;50.188;8.524;2022-09-02T05:59:27;98896.59;;;17.32;55.93
46007;BME280;31738;50.188;8.524;2022-09-02T06:01:56;98898.19;;;17.33;55.76
46007;BME280;31738;50.188;8.524;2022-09-02T06:04:22;98900.25;;;17.36;55.49
46007;BME280;31738;50.188;8.524;2022-09-02T06:06:49;98902.53;;;17.43;55.88
46007;BME280;31738;50.188;8.524;2022-09-02T06:09:19;98904.31;;;17.47;55.19
46007;BME280;31738;50.188;8.524;2022-09-02T06:11:47;98901.94;;;17.46;55.34
46007;BME280;31738;50.188;8.524;2022-09-02T06:14:18;98896.66;;;17.49;55.77
46007;BME280;31738;50.188;8.524;2022-09-02T06:16:46;98899.22;;;17.54;55.10
46007;BME280;31738;50.188;8.524;2022-09-02T06:19:21;98906.25;;;17.55;55.46
46007;BME280;31738;50.188;8.524;2022-09-02T06:21:52;98902.00;;;17.63;55.60
46007;BME280;31738;50.188;8.524;2022-09-02T06:24:17;98900.56;;;17.65;54.76
46007;BME280;31738;50.188;8.524;2022-09-02T06:26:43;98908.38;;;17.67;55.05
46007;BME280;31738;50.188;8.524;2022-09-02T06:29:09;98905.53;;;17.72;54.93
46007;BME280;31738;50.188;8.524;2022-09-02T06:31:35;98903.44;;;17.77;54.68
46007;BME280;31738;50.188;8.524;2022-09-02T06:34:02;98901.09;;;17.84;54.74
46007;BME280;31738;50.188;8.524;2022-09-02T06:36:29;98900.28;;;17.92;54.07
46007;BME280;31738;50.188;8.524;2022-09-02T06:38:59;98900.00;;;18.02;54.18
46007;BME280;31738;50.188;8.524;2022-09-02T06:41:28;98908.94;;;18.11;53.92
46007;BME280;31738;50.188;8.524;2022-09-02T06:43:58;98908.63;;;18.21;53.70
46007;BME280;31738;50.188;8.524;2022-09-02T06:46:28;98916.16;;;18.33;53.90
46007;BME280;31738;50.188;8.524;2022-09-02T06:48:57;98924.97;;;18.38;53.66
46007;BME280;31738;50.188;8.524;2022-09-02T06:51:27;98915.53;;;18.44;53.53
46007;BME280;31738;50.188;8.524;2022-09-02T06:53:54;98925.75;;;18.47;53.31
46007;BME280;31738;50.188;8.524;2022-09-02T06:56:23;98930.88;;;18.49;53.62
46007;BME280;31738;50.188;8.524;2022-09-02T06:58:49;98929.44;;;18.51;53.45
46007;BME280;31738;50.188;8.524;2022-09-02T07:01:33;98928.47;;;18.47;53.38
46007;BME280;31738;50.188;8.524;2022-09-02T07:04:00;98924.13;;;18.21;53.90
46007;BME280;31738;50.188;8.524;2022-09-02T07:06:48;98922.38;;;18.33;53.95
46007;BME280;31738;50.188;8.524;2022-09-02T07:09:20;98922.91;;;18.44;53.60
46007;BME280;31738;50.188;8.524;2022-09-02T07:11:47;98917.28;;;18.49;53.72
46007;BME280;31738;50.188;8.524;2022-09-02T07:14:15;98915.22;;;18.54;53.69
46007;BME280;31738;50.188;8.524;2022-09-02T07:16:44;98915.03;;;18.59;53.27
46007;BME280;31738;50.188;8.524;2022-09-02T07:19:10;98917.94;;;18.54;52.93
46007;BME280;31738;50.188;8.524;2022-09-02T07:22:03;98909.94;;;18.49;53.26
46007;BME280;31738;50.188;8.524;2022-09-02T07:24:50;98921.13;;;18.56;53.43
46007;BME280;31738;50.188;8.524;2022-09-02T07:27:52;98911.69;;;18.62;52.99
46007;BME280;31738;50.188;8.524;2022-09-02T07:30:19;98913.59;;;18.70;52.99
46007;BME280;31738;50.188;8.524;2022-09-02T07:32:50;98909.09;;;18.83;52.88
46007;BME280;31738;50.188;8.524;2022-09-02T07:35:20;98918.03;;;18.92;52.51
46007;BME280;31738;50.188;8.524;2022-09-02T07:37:48;98916.41;;;19.00;52.53
46007;BME280;31738;50.188;8.524;2022-09-02T07:40:21;98912.88;;;19.08;52.20
46007;BME280;31738;50.188;8.524;2022-09-02T07:42:51;98919.59;;;19.19;52.39
46007;BME280;31738;50.188;8.524;2022-09-02T07:45:30;98916.03;;;19.35;51.89
46007;BME280;31738;50.188;8.524;2022-09-02T07:48:33;98908.31;;;19.46;51.42
46007;BME280;31738;50.188;8.524;2022-09-02T07:51:11;98918.63;;;19.61;51.31
46007;BME280;31738;50.188;8.524;2022-09-02T07:53:38;98929.31;;;19.74;50.75
46007;BME280;31738;50.188;8.524;2022-09-02T07:56:17;98925.88;;;19.86;50.40
46007;BME280;31738;50.188;8.524;2022-09-02T07:58:47;98927.75;;;19.94;50.48
46007;BME280;31738;50.188;8.524;2022-09-02T08:01:39;98917.47;;;19.99;50.14
46007;BME280;31738;50.188;8.524;2022-09-02T08:04:11;98922.06;;;20.07;50.15
46007;BME280;31738;50.188;8.524;2022-09-02T08:09:58;98930.94;;;20.25;50.02
46007;BME280;31738;50.188;8.524;2022-09-02T08:13:05;98927.69;;;20.31;49.82
46007;BME280;31738;50.188;8.524;2022-09-02T08:15:37;98928.41;;;20.41;49.51
46007;BME280;31738;50.188;8.524;2022-09-02T08:18:06;98932.34;;;20.52;49.38
46007;BME280;31738;50.188;8.524;2022-09-02T08:20:52;98937.75;;;20.60;49.05
46007;BME280;31738;50.188;8.524;2022-09-02T08:24:02;98939.13;;;20.66;49.01
46007;BME280;31738;50.188;8.524;2022-09-02T08:26:32;98937.78;;;20.72;49.01
46007;BME280;31738;50.188;8.524;2022-09-02T08:29:11;98939.63;;;20.80;48.73
46007;BME280;31738;50.188;8.524;2022-09-02T08:34:26;98946.22;;;21.00;48.29
46007;BME280;31738;50.188;8.524;2022-09-02T08:36:55;98951.38;;;21.13;47.93
46007;BME280;31738;50.188;8.524;2022-09-02T08:39:35;98943.69;;;21.27;48.03
46007;BME280;31738;50.188;8.524;2022-09-02T08:42:17;98947.09;;;21.36;47.43
46007;BME280;31738;50.188;8.524;2022-09-02T08:45:39;98941.19;;;21.46;47.42
46007;BME280;31738;50.188;8.524;2022-09-02T08:51:50;98950.13;;;21.67;46.77
46007;BME280;31738;50.188;8.524;2022-09-02T08:54:43;98943.31;;;21.85;46.33
46007;BME280;31738;50.188;8.524;2022-09-02T08:57:10;98947.19;;;21.97;46.08
46007;BME280;31738;50.188;8.524;2022-09-02T08:59:37;98955.72;;;22.07;46.00
46007;BME280;31738;50.188;8.524;2022-09-02T09:07:54;98954.59;;;22.48;45.19
46007;BME280;31738;50.188;8.524;2022-09-02T09:18:59;98951.94;;;22.75;44.24
46007;BME280;31738;50.188;8.524;2022-09-02T09:21:30;98958.03;;;22.84;44.49
46007;BME280;31738;50.188;8.524;2022-09-02T09:23:57;98955.38;;;23.00;43.83
46007;BME280;31738;50.188;8.524;2022-09-02T09:26:27;98965.03;;;23.09;43.26
46007;BME280;31738;50.188;8.524;2022-09-02T09:28:54;98964.84;;;23.18;43.33
46007;BME280;31738;50.188;8.524;2022-09-02T09:31:23;98960.97;;;23.19;43.08
46007;BME280;31738;50.188;8.524;2022-09-02T09:36:49;98959.63;;;23.25;42.83
46007;BME280;31738;50.188;8.524;2022-09-02T09:39:20;98960.41;;;23.41;42.65
46007;BME280;31738;50.188;8.524;2022-09-02T09:42:28;98960.78;;;23.55;42.15
46007;BME280;31738;50.188;8.524;2022-09-02T09:48:07;98964.94;;;23.80;41.18
46007;BME280;31738;50.188;8.524;2022-09-02T09:53:33;98956.28;;;24.09;40.40
46007;BME280;31738;50.188;8.524;2022-09-02T09:58:45;98960.41;;;24.34;39.61
46007;BME280;31738;50.188;8.524;2022-09-02T10:01:30;98969.34;;;24.50;39.57
46007;BME280;31738;50.188;8.524;2022-09-02T10:07:04;98978.66;;;24.80;39.16
46007;BME280;31738;50.188;8.524;2022-09-02T10:09:37;98990.00;;;24.98;37.93
46007;BME280;31738;50.188;8.524;2022-09-02T10:12:10;98989.47;;;25.11;37.32
46007;BME280;31738;50.188;8.524;2022-09-02T10:14:48;98996.72;;;25.19;37.48
46007;BME280;31738;50.188;8.524;2022-09-02T10:17:39;98999.44;;;25.00;36.64
46007;BME280;31738;50.188;8.524;2022-09-02T10:20:41;99012.25;;;24.74;37.47
46007;BME280;31738;50.188;8.524;2022-09-02T10:26:24;99010.31;;;24.93;35.85
46007;BME280;31738;50.188;8.524;2022-09-02T10:37:42;99006.75;;;24.74;36.01
46007;BME280;31738;50.188;8.524;2022-09-02T10:40:22;99012.03;;;25.01;34.97
46007;BME280;31738;50.188;8.524;2022-09-02T10:43:04;99017.38;;;25.33;34.48
46007;BME280;31738;50.188;8.524;2022-09-02T10:45:49;99019.38;;;25.55;33.81
46007;BME280;31738;50.188;8.524;2022-09-02T10:51:43;99025.69;;;25.78;33.87
46007;BME280;31738;50.188;8.524;2022-09-02T10:57:01;99032.63;;;25.49;33.08
46007;BME280;31738;50.188;8.524;2022-09-02T10:59:52;99037.53;;;25.59;33.15
46007;BME280;31738;50.188;8.524;2022-09-02T11:08:54;99039.75;;;25.95;32.82
46007;BME280;31738;50.188;8.524;2022-09-02T11:11:57;99034.88;;;26.08;32.79
46007;BME280;31738;50.188;8.524;2022-09-02T11:14:58;99037.75;;;26.15;32.41
46007;BME280;31738;50.188;8.524;2022-09-02T11:21:03;99028.09;;;26.50;32.67
46007;BME280;31738;50.188;8.524;2022-09-02T11:24:25;99024.41;;;26.65;32.23
46007;BME280;31738;50.188;8.524;2022-09-02T11:31:18;99012.13;;;26.89;31.49
46007;BME280;31738;50.188;8.524;2022-09-02T11:33:20;99019.63;;;26.92;31.50
46007;BME280;31738;50.188;8.524;2022-09-02T11:35:51;99019.31;;;26.97;31.45
46007;BME280;31738;50.188;8.524;2022-09-02T11:38:55;99018.66;;;27.07;30.56
46007;BME280;31738;50.188;8.524;2022-09-02T11:42:13;99016.03;;;27.18;30.96
46007;BME280;31738;50.188;8.524;2022-09-02T11:53:43;99007.72;;;27.47;30.34
46007;BME280;31738;50.188;8.524;2022-09-02T11:56:12;99010.97;;;27.56;30.04
46007;BME280;31738;50.188;8.524;2022-09-02T11:58:47;99011.03;;;27.63;29.74
46007;BME280;31738;50.188;8.524;2022-09-02T12:01:50;99011.84;;;27.64;29.90
46007;BME280;31738;50.188;8.524;2022-09-02T12:04:27;99006.38;;;27.71;29.62
46007;BME280;31738;50.188;8.524;2022-09-02T12:07:48;99003.69;;;27.74;29.75
46007;BME280;31738;50.188;8.524;2022-09-02T12:17:08;99005.66;;;27.77;29.82
46007;BME280;31738;50.188;8.524;2022-09-02T12:19:42;99000.97;;;27.81;30.36
46007;BME280;31738;50.188;8.524;2022-09-02T12:22:37;98999.78;;;27.82;29.49
46007;BME280;31738;50.188;8.524;2022-09-02T12:28:24;98994.25;;;27.82;30.03
46007;BME280;31738;50.188;8.524;2022-09-02T12:43:56;98985.63;;;27.07;31.07
46007;BME280;31738;50.188;8.524;2022-09-02T12:53:58;98984.38;;;26.19;31.84
46007;BME280;31738;50.188;8.524;2022-09-02T12:56:54;98972.97;;;25.95;32.21
46007;BME280;31738;50.188;8.524;2022-09-02T12:59:33;98964.47;;;25.81;32.84
46007;BME280;31738;50.188;8.524;2022-09-02T13:02:52;98965.22;;;25.78;32.15
46007;BME280;31738;50.188;8.524;2022-09-02T13:16:12;98924.78;;;25.56;32.48
46007;BME280;31738;50.188;8.524;2022-09-02T13:23:52;98921.44;;;25.43;32.66
46007;BME280;31738;50.188;8.524;2022-09-02T13:26:09;98913.69;;;25.30;32.64
46007;BME280;31738;50.188;8.524;2022-09-02T13:31:31;98911.41;;;25.32;33.26
46007;BME280;31738;50.188;8.524;2022-09-02T13:34:00;98908.00;;;25.38;32.83
46007;BME280;31738;50.188;8.524;2022-09-02T13:36:34;98902.94;;;25.40;32.57
46007;BME280;31738;50.188;8.524;2022-09-02T13:39:16;98907.50;;;25.33;32.62
46007;BME280;31738;50.188;8.524;2022-09-02T13:41:43;98894.06;;;25.28;32.63
46007;BME280;31738;50.188;8.524;2022-09-02T13:44:12;98886.22;;;25.30;32.50
46007;BME280;31738;50.188;8.524;2022-09-02T13:46:46;98879.16;;;25.29;32.31
46007;BME280;31738;50.188;8.524;2022-09-02T13:49:39;98893.53;;;25.18;32.09
46007;BME280;31738;50.188;8.524;2022-09-02T13:52:16;98882.22;;;25.23;32.06
46007;BME280;31738;50.188;8.524;2022-09-02T13:54:50;98892.91;;;25.29;31.78
46007;BME280;31738;50.188;8.524;2022-09-02T13:57:21;98881.19;;;25.32;32.18
46007;BME280;31738;50.188;8.524;2022-09-02T13:59:50;98884.81;;;25.36;32.08
46007;BME280;31738;50.188;8.524;2022-09-02T14:02:29;98873.88;;;25.39;31.98
46007;BME280;31738;50.188;8.524;2022-09-02T14:05:11;98871.50;;;25.38;32.17
46007;BME280;31738;50.188;8.524;2022-09-02T14:07:44;98870.75;;;25.41;32.11
46007;BME280;31738;50.188;8.524;2022-09-02T14:10:15;98859.78;;;25.41;32.05
46007;BME280;31738;50.188;8.524;2022-09-02T14:12:41;98857.75;;;25.38;31.92
46007;BME280;31738;50.188;8.524;2022-09-02T14:15:11;98852.63;;;25.36;31.83
46007;BME280;31738;50.188;8.524;2022-09-02T14:17:37;98847.06;;;25.33;31.90
46007;BME280;31738;50.188;8.524;2022-09-02T14:20:22;98856.34;;;25.25;31.84
46007;BME280;31738;50.188;8.524;2022-09-02T14:22:54;98849.25;;;25.23;31.50
46007;BME280;31738;50.188;8.524;2022-09-02T14:25:21;98847.69;;;25.23;31.61
46007;BME280;31738;50.188;8.524;2022-09-02T14:27:52;98850.00;;;25.20;31.48
46007;BME280;31738;50.188;8.524;2022-09-02T14:30:36;98836.59;;;25.15;31.38
46007;BME280;31738;50.188;8.524;2022-09-02T14:33:15;98835.41;;;25.16;31.48
46007;BME280;31738;50.188;8.524;2022-09-02T14:35:54;98840.09;;;25.16;31.91
46007;BME280;31738;50.188;8.524;2022-09-02T14:38:24;98830.75;;;25.20;31.65
46007;BME280;31738;50.188;8.524;2022-09-02T14:41:03;98832.75;;;25.20;31.54
46007;BME280;31738;50.188;8.524;2022-09-02T14:43:39;98816.19;;;25.16;32.12
46007;BME280;31738;50.188;8.524;2022-09-02T14:46:13;98816.94;;;25.13;31.85
46007;BME280;31738;50.188;8.524;2022-09-02T14:48:41;98813.38;;;25.13;31.76
46007;BME280;31738;50.188;8.524;2022-09-02T14:51:07;98819.66;;;25.13;31.91
46007;BME280;31738;50.188;8.524;2022-09-02T14:53:33;98813.00;;;25.14;32.00
46007;BME280;31738;50.188;8.524;2022-09-02T14:56:03;98814.19;;;25.13;31.55
46007;BME280;31738;50.188;8.524;2022-09-02T14:58:29;98815.31;;;25.12;31.64
46007;BME280;31738;50.188;8.524;2022-09-02T15:00:58;98805.06;;;25.09;32.16
46007;BME280;31738;50.188;8.524;2022-09-02T15:03:24;98809.34;;;25.07;32.16
46007;BME280;31738;50.188;8.524;2022-09-02T15:05:50;98800.31;;;25.06;31.67
46007;BME280;31738;50.188;8.524;2022-09-02T15:08:20;98798.00;;;25.08;31.85
46007;BME280;31738;50.188;8.524;2022-09-02T15:10:46;98787.38;;;25.07;32.07
46007;BME280;31738;50.188;8.524;2022-09-02T15:13:17;98787.75;;;25.05;31.52
46007;BME280;31738;50.188;8.524;2022-09-02T15:15:45;98799.47;;;25.02;31.48
46007;BME280;31738;50.188;8.524;2022-09-02T15:18:10;98778.69;;;25.01;31.35
46007;BME280;31738;50.188;8.524;2022-09-02T15:20:36;98787.66;;;24.98;30.86
46007;BME280;31738;50.188;8.524;2022-09-02T15:23:01;98787.66;;;24.98;31.19
46007;BME280;31738;50.188;8.524;2022-09-02T15:25:27;98793.13;;;24.98;30.83
46007;BME280;31738;50.188;8.524;2022-09-02T15:27:53;98786.03;;;24.97;30.75
46007;BME280;31738;50.188;8.524;2022-09-02T15:30:18;98785.19;;;24.93;30.81
46007;BME280;31738;50.188;8.524;2022-09-02T15:32:44;98796.19;;;24.93;30.77
46007;BME280;31738;50.188;8.524;2022-09-02T15:35:10;98786.31;;;24.89;31.24